createdAt,value
2018-10-01T00:03:38.735Z,21.23
2018-10-01T00:07:42.035Z,13.47
2018-10-01T00:11:44.885Z,14.37
2018-10-01T00:15:48.315Z,9.17
2018-10-01T00:19:56.737Z,9.60
2018-10-01T00:23:59.540Z,16.27
2018-10-01T00:28:02.272Z,11.03
2018-10-01T00:32:05.103Z,20.40
2018-10-01T00:36:07.792Z,10.03
2018-10-01T00:40:10.587Z,14.57
2018-10-01T00:44:13.320Z,11.13
2018-10-01T00:48:16.097Z,16.67
2018-10-01T00:52:18.943Z,17.33
2018-10-01T00:56:21.706Z,14.03
2018-10-01T01:00:24.442Z,17.10
2018-10-01T01:04:33.450Z,18.03
2018-10-01T01:08:36.181Z,17.80
2018-10-01T01:12:38.962Z,12.93
2018-10-01T01:16:41.629Z,10.57
2018-10-01T01:20:44.333Z,16.60
2018-10-01T01:24:47.008Z,17.57
2018-10-01T01:28:49.759Z,15.87
2018-10-01T01:32:52.498Z,13.57
2018-10-01T01:36:55.373Z,16.17
2018-10-01T01:40:58.166Z,13.87
2018-10-01T01:45:00.885Z,19.90
2018-10-01T01:49:04.038Z,23.67
2018-10-01T01:53:08.934Z,14.47
2018-10-01T01:57:11.776Z,13.17
2018-10-01T02:01:14.572Z,15.17
2018-10-01T02:05:17.431Z,13.93
2018-10-01T02:09:20.268Z,15.97
2018-10-01T02:13:23.068Z,12.93
2018-10-01T02:17:25.917Z,22.40
2018-10-01T02:21:28.814Z,14.83
2018-10-01T02:25:31.627Z,17.00
2018-10-01T02:29:34.405Z,16.67
2018-10-01T02:33:37.361Z,12.67
2018-10-01T02:37:40.234Z,17.00
2018-10-01T02:41:43.051Z,10.67
2018-10-01T02:45:45.887Z,11.33
2018-10-01T02:49:48.723Z,13.67
2018-10-01T02:53:57.171Z,10.83
2018-10-01T02:57:59.957Z,13.50
2018-10-01T03:02:02.754Z,11.40
2018-10-01T03:06:05.621Z,13.27
2018-10-01T03:10:08.468Z,11.23
2018-10-01T03:14:11.897Z,16.50
2018-10-01T03:18:14.685Z,12.13
2018-10-01T03:22:17.744Z,9.63
2018-10-01T03:26:20.556Z,16.13
2018-10-01T03:30:23.347Z,13.67
2018-10-01T03:34:26.216Z,11.40
2018-10-01T03:38:28.986Z,14.87
2018-10-01T03:42:31.738Z,13.53
2018-10-01T03:46:34.525Z,12.90
2018-10-01T03:50:37.396Z,12.43
2018-10-01T03:54:40.177Z,15.27
2018-10-01T03:58:42.975Z,18.20
2018-10-01T04:02:45.837Z,13.10
2018-10-01T04:06:48.746Z,13.33
2018-10-01T04:10:51.579Z,18.77
2018-10-01T04:14:54.347Z,11.40
2018-10-01T04:18:57.157Z,15.67
2018-10-01T04:22:59.865Z,13.00
2018-10-01T04:27:02.743Z,11.90
2018-10-01T04:31:06.200Z,7.97
2018-10-01T04:35:09.124Z,7.37
2018-10-01T04:39:13.763Z,10.40
2018-10-01T04:43:16.718Z,11.57
2018-10-01T04:47:19.456Z,9.60
2018-10-01T04:51:22.279Z,11.87
2018-10-01T04:55:25.081Z,13.93
2018-10-01T04:59:28.001Z,9.67
2018-10-01T05:03:30.854Z,12.70
2018-10-01T05:07:33.584Z,8.97
2018-10-01T05:11:36.356Z,7.57
2018-10-01T05:15:39.304Z,9.33
2018-10-01T05:19:42.108Z,9.13
2018-10-01T05:23:44.908Z,13.80
2018-10-01T05:27:47.708Z,12.70
2018-10-01T05:31:50.531Z,7.97
2018-10-01T05:35:53.449Z,17.00
2018-10-01T05:40:00.728Z,9.40
2018-10-01T05:44:18.589Z,6.80
2018-10-01T05:48:21.522Z,7.17
2018-10-01T05:52:24.332Z,18.97
2018-10-01T05:56:27.131Z,13.93
2018-10-01T06:00:38.174Z,13.03
2018-10-01T06:04:41.046Z,7.50
2018-10-01T06:08:44.388Z,13.20
2018-10-01T06:12:53.145Z,14.17
2018-10-01T06:16:55.934Z,9.87
2018-10-01T06:20:58.963Z,12.83
2018-10-01T06:25:01.987Z,14.40
2018-10-01T06:29:04.733Z,11.23
2018-10-01T06:33:07.701Z,13.30
2018-10-01T06:37:10.496Z,10.10
2018-10-01T06:41:13.502Z,12.33
2018-10-01T06:45:16.314Z,14.13
2018-10-01T06:49:19.888Z,9.57
2018-10-01T06:53:23.413Z,7.73
2018-10-01T06:57:26.990Z,12.17
2018-10-01T07:01:29.680Z,5.63
2018-10-01T07:05:32.593Z,10.33
2018-10-01T07:09:35.400Z,6.00
2018-10-01T07:13:38.191Z,7.00
2018-10-01T07:17:40.956Z,7.03
2018-10-01T07:21:43.775Z,6.30
2018-10-01T07:25:46.533Z,7.37
2018-10-01T07:29:49.537Z,5.90
2018-10-01T07:33:52.289Z,7.23
2018-10-01T07:37:54.927Z,4.17
2018-10-01T07:41:57.879Z,8.93
2018-10-01T07:46:00.661Z,11.20
2018-10-01T07:50:03.539Z,7.30
2018-10-01T07:54:06.978Z,6.03
2018-10-01T07:58:09.821Z,9.80
2018-10-01T08:02:12.614Z,5.10
2018-10-01T08:06:15.350Z,6.37
2018-10-01T08:10:18.148Z,4.43
2018-10-01T08:14:20.957Z,4.73
2018-10-01T08:18:23.697Z,6.27
2018-10-01T08:22:26.448Z,7.60
2018-10-01T08:26:29.189Z,4.77
2018-10-01T08:30:32.103Z,5.30
2018-10-01T08:34:35.029Z,4.43
2018-10-01T08:38:37.803Z,4.03
2018-10-01T08:42:40.413Z,4.87
2018-10-01T08:46:43.271Z,7.57
2018-10-01T08:50:51.356Z,4.70
2018-10-01T08:54:54.362Z,4.00
2018-10-01T08:58:57.119Z,4.43
2018-10-01T09:02:59.876Z,7.93
2018-10-01T09:07:03.009Z,6.47
2018-10-01T09:11:05.818Z,4.70
2018-10-01T09:15:09.423Z,5.57
2018-10-01T09:19:12.231Z,4.87
2018-10-01T09:23:15.140Z,5.33
2018-10-01T09:27:17.880Z,6.20
2018-10-01T09:31:20.747Z,4.77
2018-10-01T09:35:23.500Z,4.43
2018-10-01T09:39:26.324Z,3.77
2018-10-01T09:43:29.115Z,2.87
2018-10-01T09:47:32.020Z,4.20
2018-10-01T09:51:36.061Z,5.67
2018-10-01T09:55:39.044Z,3.13
2018-10-01T09:59:41.760Z,3.43
2018-10-01T10:03:44.555Z,2.60
2018-10-01T10:07:47.367Z,1.83
2018-10-01T10:11:50.097Z,3.13
2018-10-01T10:15:52.905Z,4.43
2018-10-01T10:19:55.701Z,5.10
2018-10-01T10:23:58.475Z,5.70
2018-10-01T10:28:01.267Z,5.33
2018-10-01T10:32:04.057Z,2.20
2018-10-01T10:36:06.957Z,5.83
2018-10-01T10:40:10.008Z,5.27
2018-10-01T10:44:12.769Z,3.70
2018-10-01T10:48:15.513Z,1.17
2018-10-01T10:52:18.385Z,3.67
2018-10-01T10:56:21.293Z,2.57
2018-10-01T11:00:24.104Z,2.90
2018-10-01T11:04:26.900Z,6.03
2018-10-01T11:08:29.670Z,3.73
2018-10-01T11:12:32.401Z,3.67
2018-10-01T11:16:35.127Z,2.10
2018-10-01T11:20:37.855Z,1.43
2018-10-01T11:24:40.788Z,1.20
2018-10-01T11:28:43.622Z,1.17
2018-10-01T11:32:46.516Z,0.80
2018-10-01T11:36:49.262Z,4.40
2018-10-01T11:40:52.137Z,1.40
2018-10-01T11:44:55.179Z,2.13
2018-10-01T11:48:58.018Z,4.00
2018-10-01T11:53:00.895Z,5.53
2018-10-01T11:57:03.724Z,2.47
2018-10-01T12:01:06.856Z,5.07
2018-10-01T12:05:09.576Z,5.37
2018-10-01T12:09:12.664Z,5.13
2018-10-01T12:13:15.560Z,7.67
2018-10-01T12:17:18.320Z,6.17
2018-10-01T12:21:21.154Z,6.80
2018-10-01T12:25:23.949Z,5.63
2018-10-01T12:29:26.650Z,4.10
2018-10-01T12:33:29.553Z,8.20
2018-10-01T12:37:32.381Z,7.93
2018-10-01T12:41:35.171Z,4.93
2018-10-01T12:45:37.983Z,8.50
2018-10-01T12:49:40.637Z,10.30
2018-10-01T12:53:43.446Z,8.30
2018-10-01T12:57:46.302Z,6.57
2018-10-01T13:01:49.237Z,8.10
2018-10-01T13:05:52.061Z,8.73
2018-10-01T13:09:54.901Z,4.20
2018-10-01T13:13:57.947Z,9.07
2018-10-01T13:18:00.765Z,9.60
2018-10-01T13:22:03.611Z,5.83
2018-10-01T13:26:06.414Z,6.80
2018-10-01T13:30:09.433Z,11.70
2018-10-01T13:34:12.127Z,7.83
2018-10-01T13:38:15.028Z,10.17
2018-10-01T13:42:18.135Z,8.50
2018-10-01T13:46:20.861Z,7.93
2018-10-01T13:50:23.682Z,12.10
2018-10-01T13:54:26.483Z,8.93
2018-10-01T13:58:29.420Z,10.00
2018-10-01T14:02:32.393Z,12.30
2018-10-01T14:06:35.114Z,11.47
2018-10-01T14:10:37.971Z,11.20
2018-10-01T14:14:40.933Z,9.23
2018-10-01T14:18:43.635Z,9.80
2018-10-01T14:22:46.349Z,6.23
2018-10-01T14:26:49.169Z,10.67
2018-10-01T14:30:52.267Z,9.63
2018-10-01T14:34:55.100Z,6.40
2018-10-01T14:38:57.937Z,7.23
2018-10-01T14:43:00.853Z,5.33
2018-10-01T14:47:03.614Z,3.87
2018-10-01T14:51:06.552Z,5.43
2018-10-01T14:55:09.432Z,3.93
2018-10-01T14:59:13.146Z,3.47
2018-10-01T15:03:16.004Z,7.83
2018-10-01T15:07:18.744Z,2.60
2018-10-01T15:11:21.454Z,2.10
2018-10-01T15:15:24.219Z,4.07
2018-10-01T15:19:27.029Z,7.77
2018-10-01T15:23:29.819Z,6.07
2018-10-01T15:27:32.583Z,4.07
2018-10-01T15:31:35.239Z,6.17
2018-10-01T15:35:37.999Z,4.73
2018-10-01T15:39:40.831Z,5.20
2018-10-01T15:43:43.556Z,5.03
2018-10-01T15:47:51.319Z,4.20
2018-10-01T15:51:54.158Z,3.77
2018-10-01T15:55:57.055Z,2.23
2018-10-01T16:00:09.437Z,3.30
2018-10-01T16:08:38.143Z,2.43
2018-10-01T16:12:52.139Z,8.20
2018-10-01T16:16:54.975Z,3.87
2018-10-01T16:21:19.501Z,5.23
2018-10-01T16:25:22.491Z,2.93
2018-10-01T16:29:25.312Z,4.37
2018-10-01T16:33:28.151Z,4.83
2018-10-01T16:37:31.013Z,4.57
2018-10-01T16:41:34.289Z,3.13
2018-10-01T16:45:37.056Z,6.70
2018-10-01T16:49:40.015Z,6.23
2018-10-01T16:53:42.869Z,10.07
2018-10-01T16:57:45.818Z,5.30
2018-10-01T17:01:48.645Z,15.83
2018-10-01T17:05:55.844Z,6.73
2018-10-01T17:09:58.649Z,7.67
2018-10-01T17:14:01.483Z,6.30
2018-10-01T17:18:04.294Z,8.73
2018-10-01T17:22:07.118Z,10.47
2018-10-01T17:26:10.182Z,6.37
2018-10-01T17:30:13.038Z,4.07
2018-10-01T17:34:15.680Z,5.30
2018-10-01T17:38:18.384Z,3.70
2018-10-01T17:42:21.234Z,6.03
2018-10-01T17:46:23.966Z,4.03
2018-10-01T17:50:26.765Z,6.20
2018-10-01T17:54:29.469Z,2.57
2018-10-01T17:58:32.443Z,7.57
2018-10-01T18:02:35.132Z,5.87
2018-10-01T18:06:37.947Z,6.77
2018-10-01T18:10:40.797Z,6.10
2018-10-01T18:14:44.348Z,7.67
2018-10-01T18:18:47.142Z,10.37
2018-10-01T18:22:49.985Z,8.03
2018-10-01T18:26:52.722Z,7.53
2018-10-01T18:30:55.629Z,8.60
2018-10-01T18:34:58.385Z,9.43
2018-10-01T18:39:01.299Z,6.80
2018-10-01T18:43:04.226Z,7.53
2018-10-01T18:47:06.954Z,12.27
2018-10-01T18:51:09.763Z,7.43
2018-10-01T18:55:12.569Z,9.27
2018-10-01T18:59:15.332Z,8.30
2018-10-01T19:03:18.226Z,9.20
2018-10-01T19:07:20.974Z,4.37
2018-10-01T19:11:23.720Z,7.97
2018-10-01T19:15:26.702Z,8.87
2018-10-01T19:19:29.465Z,9.20
2018-10-01T19:23:32.296Z,8.07
2018-10-01T19:27:35.023Z,6.27
2018-10-01T19:31:38.180Z,10.47
2018-10-01T19:35:42.159Z,12.30
2018-10-01T19:39:45.236Z,6.70
2018-10-01T19:43:48.065Z,6.90
2018-10-01T19:48:05.585Z,6.57
2018-10-01T19:52:08.750Z,15.53
2018-10-01T19:56:11.462Z,6.37
2018-10-01T20:00:14.623Z,10.50
2018-10-01T20:04:17.345Z,13.13
2018-10-01T20:08:20.423Z,12.93
2018-10-01T20:12:23.338Z,6.00
2018-10-01T20:16:26.180Z,12.27
2018-10-01T20:20:28.968Z,5.87
2018-10-01T20:24:32.674Z,10.90
2018-10-01T20:28:36.122Z,8.20
2018-10-01T20:32:40.050Z,6.30
2018-10-01T20:36:42.917Z,13.13
2018-10-01T20:40:45.737Z,9.13
2018-10-01T20:44:48.459Z,10.40
2018-10-01T20:48:51.180Z,10.53
2018-10-01T20:52:53.962Z,11.90
2018-10-01T20:56:56.675Z,7.10
2018-10-01T21:00:59.426Z,7.73
2018-10-01T21:05:02.322Z,7.70
2018-10-01T21:09:08.109Z,10.03
2018-10-01T21:13:10.884Z,8.17
2018-10-01T21:17:13.672Z,9.10
2018-10-01T21:21:16.492Z,14.07
2018-10-01T21:25:19.279Z,11.43
2018-10-01T21:29:22.053Z,12.27
2018-10-01T21:33:24.854Z,8.73
2018-10-01T21:37:27.632Z,8.37
2018-10-01T21:41:30.363Z,12.83
2018-10-01T21:45:33.140Z,11.67
2018-10-01T21:49:35.883Z,8.77
2018-10-01T21:53:38.639Z,9.77
2018-10-01T21:57:41.402Z,9.60
2018-10-01T22:01:44.143Z,9.73
2018-10-01T22:05:46.834Z,8.13
2018-10-01T22:09:49.920Z,12.07
2018-10-01T22:13:52.640Z,12.73
2018-10-01T22:17:55.390Z,6.30
2018-10-01T22:21:58.743Z,8.50
2018-10-01T22:26:01.559Z,13.37
2018-10-01T22:30:04.606Z,7.67
2018-10-01T22:34:07.402Z,8.53
2018-10-01T22:38:10.216Z,13.00
2018-10-01T22:42:12.885Z,11.87
2018-10-01T22:46:15.587Z,6.87
2018-10-01T22:50:18.305Z,11.90
2018-10-01T22:54:20.996Z,9.03
2018-10-01T22:58:23.793Z,11.43
2018-10-01T23:02:27.137Z,16.97
2018-10-01T23:06:30.164Z,7.83
2018-10-01T23:10:33.390Z,9.90
2018-10-01T23:14:36.425Z,17.37
2018-10-01T23:18:39.146Z,11.47
2018-10-01T23:22:41.989Z,10.30
2018-10-01T23:26:44.662Z,10.90
2018-10-01T23:30:47.389Z,13.10
2018-10-01T23:34:50.092Z,11.57
2018-10-01T23:38:52.816Z,14.23
2018-10-01T23:42:55.611Z,8.83
2018-10-01T23:46:58.412Z,9.07
2018-10-01T23:51:01.164Z,17.10
2018-10-01T23:55:04.810Z,13.67
2018-10-01T23:59:07.509Z,8.60
